Time;durP1;ratioP1;P1;durP2;ratioP2;P2;SDS_P1;SDS_P2;PMS_P1;PMS_P2;Temp;Humidity;BMP_temperature;BMP_pressure;BME280_temperature;BME280_humidity;BME280_pressure;Samples;Min_cycle;Max_cycle;Signal;HPM_P1;HPM_P2
2022/10/30 00:01:22;;;;;;;3.97;2.50;;;16.30;76.00;16.50;96968.00;;;;5057029;28;20258;-83
2022/10/30 00:03:52;;;;;;;3.80;2.33;;;16.30;75.90;16.50;96966.00;;;;5053006;28;20254;-83
2022/10/30 00:06:22;;;;;;;4.17;2.73;;;16.30;75.90;16.50;96965.00;;;;5051929;28;20203;-83
2022/10/30 00:08:52;;;;;;;4.40;3.17;;;16.30;75.80;16.40;96964.00;;;;5056213;28;20200;-83
2022/10/30 00:11:23;;;;;;;5.87;3.10;;;16.20;75.70;16.40;96966.00;;;;5044292;28;20252;-83
2022/10/30 00:13:50;;;;;;;4.77;2.63;;;16.20;75.70;16.40;96961.00;;;;5045889;28;20721;-83
2022/10/30 00:16:20;;;;;;;4.37;2.63;;;16.20;75.70;16.40;96963.00;;;;5056685;28;20536;-83
2022/10/30 00:18:47;;;;;;;3.00;2.70;;;16.20;75.80;16.30;96952.00;;;;5047302;28;20225;-83
2022/10/30 00:21:16;;;;;;;3.63;2.30;;;16.10;75.70;16.30;96959.00;;;;5053788;28;20669;-83
2022/10/30 00:23:47;;;;;;;3.67;2.50;;;16.10;75.60;16.30;96952.00;;;;5045430;28;20220;-83
2022/10/30 00:26:14;;;;;;;4.17;2.33;;;16.10;75.60;16.20;96957.00;;;;5055539;28;20232;-83
2022/10/30 00:28:43;;;;;;;4.27;2.40;;;16.10;75.60;16.20;96958.00;;;;5037501;28;20253;-83
2022/10/30 00:31:10;;;;;;;4.07;2.30;;;16.00;75.50;16.20;96955.00;;;;5035921;28;20236;-83
2022/10/30 00:33:38;;;;;;;3.17;2.50;;;16.00;75.50;16.20;96953.00;;;;5039244;28;20747;-83
2022/10/30 00:36:06;;;;;;;3.57;2.70;;;16.00;75.50;16.10;96957.00;;;;5056111;28;20246;-83
2022/10/30 00:38:33;;;;;;;3.83;2.90;;;16.00;75.50;16.10;96952.00;;;;5037127;28;20316;-83
2022/10/30 00:41:01;;;;;;;5.60;2.70;;;15.90;75.40;16.10;96959.00;;;;5041803;28;20652;-83
2022/10/30 00:43:32;;;;;;;4.47;2.77;;;15.90;75.40;16.00;96953.00;;;;5035760;28;20678;-83
2022/10/30 00:46:13;;;;;;;3.87;2.43;;;15.90;75.40;16.00;96955.00;;;;5035193;28;20209;-83
2022/10/30 00:48:43;;;;;;;3.03;2.20;;;15.80;75.20;16.00;96949.00;;;;5035478;28;20185;-83
2022/10/30 00:51:13;;;;;;;3.73;2.43;;;15.80;75.30;15.90;96945.00;;;;5048836;28;20292;-83
2022/10/30 00:53:44;;;;;;;5.63;2.50;;;15.80;75.40;15.90;96949.00;;;;5046527;28;20251;-83
2022/10/30 00:56:14;;;;;;;3.67;2.70;;;15.80;75.50;15.90;96950.00;;;;5050184;28;20650;-83
2022/10/30 00:58:48;;;;;;;3.10;2.60;;;15.70;75.60;15.90;96945.00;;;;5042748;28;20233;-83
2022/10/30 01:01:22;;;;;;;4.77;2.77;;;15.70;75.60;15.90;96947.00;;;;5043093;28;20234;-83
2022/10/30 01:03:56;;;;;;;5.87;2.77;;;15.70;75.70;15.90;96947.00;;;;5045780;28;20259;-83
2022/10/30 01:06:24;;;;;;;4.83;2.53;;;15.70;75.70;15.80;96945.00;;;;5037030;28;20685;-83
2022/10/30 01:08:54;;;;;;;3.27;2.27;;;15.60;75.60;15.80;96939.00;;;;5051317;28;20243;-82
2022/10/30 01:11:24;;;;;;;3.77;2.53;;;15.60;75.60;15.80;96949.00;;;;5054520;28;20201;-83
2022/10/30 01:13:54;;;;;;;4.07;2.27;;;15.60;75.70;15.80;96945.00;;;;5045342;28;20214;-83
2022/10/30 01:16:58;;;;;;;3.07;2.10;;;15.60;75.80;15.80;96936.00;;;;5046142;28;20235;-83
2022/10/30 01:19:34;;;;;;;2.60;2.40;;;15.60;76.00;15.70;96942.00;;;;5043894;28;20674;-83
2022/10/30 01:22:22;;;;;;;2.37;1.90;;;15.60;76.10;15.70;96938.00;;;;5039744;28;20598;-83
2022/10/30 01:25:14;;;;;;;2.50;1.93;;;15.50;76.00;15.70;96938.00;;;;5037048;28;20251;-83
2022/10/30 01:28:04;;;;;;;3.40;2.30;;;15.50;75.80;15.70;96933.00;;;;5048549;28;20288;-83
2022/10/30 01:30:53;;;;;;;3.80;2.40;;;15.50;75.70;15.60;96930.00;;;;5054222;28;20252;-83
2022/10/30 01:33:37;;;;;;;3.50;2.13;;;15.50;75.60;15.60;96931.00;;;;5049422;28;20243;-83
2022/10/30 01:36:17;;;;;;;2.67;2.37;;;15.50;75.70;15.60;96935.00;;;;5030973;28;20204;-83
2022/10/30 01:38:54;;;;;;;2.27;2.03;;;15.50;75.60;15.60;96931.00;;;;5038782;28;20217;-83
2022/10/30 01:41:21;;;;;;;2.97;2.67;;;15.40;75.50;15.50;96928.00;;;;5054168;28;20204;-83
2022/10/30 01:43:55;;;;;;;2.50;2.30;;;15.40;75.60;15.50;96935.00;;;;5057830;28;20243;-83
2022/10/30 01:46:44;;;;;;;2.73;2.10;;;15.40;75.60;15.50;96926.00;;;;5057469;28;20234;-83
2022/10/30 01:49:52;;;;;;;2.63;2.10;;;15.40;75.70;15.40;96929.00;;;;5048576;28;20789;-83
2022/10/30 01:52:32;;;;;;;2.00;1.90;;;15.40;75.60;15.40;96932.00;;;;5050288;28;20232;-83
2022/10/30 01:55:12;;;;;;;2.63;2.43;;;15.30;75.50;15.40;96938.00;;;;5034420;28;20224;-81
2022/10/30 01:57:51;;;;;;;4.87;2.47;;;15.30;75.40;15.40;96935.00;;;;5047529;28;20213;-81
2022/10/30 02:00:23;;;;;;;3.80;2.03;;;15.20;75.40;15.30;96940.00;;;;5056791;28;20235;-81
2022/10/30 02:02:51;;;;;;;3.03;2.50;;;15.20;75.40;15.30;96931.00;;;;5017716;28;20194;-81
2022/10/30 02:05:33;;;;;;;4.80;2.63;;;15.20;75.40;15.30;96944.00;;;;5045645;28;20228;-82
2022/10/30 02:08:02;;;;;;;3.17;2.30;;;15.20;75.40;15.30;96937.00;;;;5051694;28;20682;-81
2022/10/30 02:10:33;;;;;;;2.63;2.43;;;15.10;75.40;15.30;96927.00;;;;5043768;28;20232;-82
2022/10/30 02:13:04;;;;;;;3.00;2.70;;;15.10;75.50;15.20;96932.00;;;;5049308;28;20307;-81
2022/10/30 02:15:37;;;;;;;3.13;2.40;;;15.10;75.50;15.20;96932.00;;;;5054037;28;20216;-81
2022/10/30 02:18:08;;;;;;;3.37;2.63;;;15.10;75.50;15.20;96930.00;;;;5052483;28;20216;-81
2022/10/30 02:20:37;;;;;;;3.57;3.03;;;15.10;76.20;15.20;96931.00;;;;5057233;28;20205;-84
2022/10/30 02:23:05;;;;;;;2.20;1.93;;;15.10;75.60;15.20;96932.00;;;;5048397;28;20252;-81
2022/10/30 02:25:32;;;;;;;3.83;2.50;;;15.00;75.60;15.20;96927.00;;;;5043569;28;20227;-81
2022/10/30 02:27:59;;;;;;;3.10;2.33;;;15.00;75.60;15.10;96926.00;;;;5054163;28;20208;-82
2022/10/30 02:30:27;;;;;;;2.97;2.40;;;15.00;75.70;15.10;96934.00;;;;5048233;28;20271;-82
2022/10/30 02:32:54;;;;;;;3.17;2.33;;;15.00;75.70;15.10;96931.00;;;;5038053;28;20336;-82
2022/10/30 02:35:21;;;;;;;3.77;2.30;;;14.90;75.80;15.10;96927.00;;;;5045429;28;20711;-82
2022/10/30 02:37:53;;;;;;;2.30;2.10;;;14.90;75.70;15.10;96927.00;;;;5049748;28;20204;-82
2022/10/30 02:40:23;;;;;;;3.53;2.50;;;14.90;75.80;15.10;96919.00;;;;5056647;28;20266;-82
2022/10/30 02:42:53;;;;;;;6.03;2.73;;;14.90;75.80;15.00;96918.00;;;;5046334;28;20225;-83
2022/10/30 02:45:21;;;;;;;3.50;2.37;;;14.90;75.70;15.00;96917.00;;;;5041524;28;20623;-81
2022/10/30 02:47:53;;;;;;;2.27;2.07;;;14.90;75.80;15.00;96919.00;;;;5037195;28;20194;-82
2022/10/30 02:50:21;;;;;;;3.37;2.70;;;14.90;75.80;15.00;96913.00;;;;5037908;28;20192;-82
2022/10/30 02:52:52;;;;;;;3.63;2.50;;;14.80;75.80;15.00;96914.00;;;;5049297;28;20239;-82
2022/10/30 02:55:19;;;;;;;2.43;2.23;;;14.80;75.90;15.00;96922.00;;;;5044221;28;20209;-82
2022/10/30 02:57:46;;;;;;;2.67;2.47;;;14.80;75.80;15.00;96917.00;;;;5054524;28;20204;-82
2022/10/30 03:00:17;;;;;;;2.40;2.20;;;14.80;75.70;14.90;96919.00;;;;5050886;28;20236;-82
2022/10/30 03:02:44;;;;;;;3.23;2.53;;;14.80;75.70;14.90;96914.00;;;;5035386;28;20205;-82
2022/10/30 03:05:11;;;;;;;3.60;3.00;;;14.80;75.70;14.90;96911.00;;;;5045426;28;20239;-82
2022/10/30 03:07:38;;;;;;;3.70;2.37;;;14.70;75.60;14.90;96912.00;;;;5053858;28;20636;-81
2022/10/30 03:10:10;;;;;;;2.77;2.50;;;14.70;75.60;14.80;96916.00;;;;5038375;28;20622;-81
2022/10/30 03:12:37;;;;;;;2.80;2.60;;;14.70;75.60;14.80;96913.00;;;;5047237;28;20201;-81
2022/10/30 03:15:05;;;;;;;3.03;2.73;;;14.70;75.60;14.80;96908.00;;;;5054788;28;20661;-81
2022/10/30 03:17:35;;;;;;;3.60;2.40;;;14.70;75.50;14.80;96917.00;;;;5044526;28;20616;-82
2022/10/30 03:20:06;;;;;;;2.33;2.13;;;14.70;75.40;14.70;96913.00;;;;5044750;28;20256;-82
2022/10/30 03:22:36;;;;;;;2.50;2.30;;;14.60;75.30;14.70;96915.00;;;;5045452;28;20239;-82
2022/10/30 03:25:03;;;;;;;2.67;2.47;;;14.60;75.40;14.70;96907.00;;;;5040129;28;20236;-82
2022/10/30 03:27:35;;;;;;;2.53;2.33;;;14.60;75.40;14.60;96905.00;;;;5017198;28;20634;-82
2022/10/30 03:30:02;;;;;;;4.33;2.63;;;14.50;75.40;14.60;96907.00;;;;5029253;28;20247;-82
2022/10/30 03:32:32;;;;;;;2.63;2.40;;;14.50;75.40;14.60;96907.00;;;;5045860;28;20204;-82
2022/10/30 03:35:02;;;;;;;2.67;2.47;;;14.50;75.40;14.60;96905.00;;;;5052726;28;20197;-82
2022/10/30 03:37:29;;;;;;;4.63;2.50;;;14.50;75.40;14.50;96910.00;;;;5057011;28;20196;-82
2022/10/30 03:39:56;;;;;;;3.90;2.07;;;14.40;75.40;14.50;96908.00;;;;5043357;28;20225;-82
2022/10/30 03:42:29;;;;;;;4.73;3.17;;;14.40;75.50;14.50;96910.00;;;;5042183;28;20240;-82
2022/10/30 03:44:58;;;;;;;7.70;3.40;;;14.40;75.60;14.50;96915.00;;;;5035882;28;20220;-82
2022/10/30 03:47:26;;;;;;;7.23;3.50;;;14.40;75.80;14.50;96920.00;;;;5043736;28;20204;-82
2022/10/30 03:49:54;;;;;;;8.87;3.80;;;14.40;76.00;14.50;96913.00;;;;5049802;28;20213;-82
2022/10/30 03:52:25;;;;;;;5.53;3.57;;;14.40;76.40;14.50;96910.00;;;;5036467;28;20201;-82
2022/10/30 03:54:54;;;;;;;6.77;3.23;;;14.30;76.70;14.40;96907.00;;;;5044457;28;20252;-81
2022/10/30 03:57:21;;;;;;;8.93;4.20;;;14.30;76.90;14.40;96913.00;;;;5049139;28;20261;-82
2022/10/30 03:59:48;;;;;;;9.47;3.80;;;14.30;76.80;14.40;96911.00;;;;5044422;28;20307;-82
2022/10/30 04:02:16;;;;;;;8.17;3.97;;;14.30;76.90;14.40;96911.00;;;;5057171;28;20224;-82
2022/10/30 04:04:46;;;;;;;7.33;3.87;;;14.30;77.00;14.30;96920.00;;;;5056889;28;20824;-82
2022/10/30 04:07:13;;;;;;;6.27;3.83;;;14.30;77.00;14.30;96913.00;;;;5056460;28;20217;-81
2022/10/30 04:09:41;;;;;;;6.67;4.30;;;14.20;77.50;14.30;96920.00;;;;5055479;28;20181;-81
2022/10/30 04:12:12;;;;;;;5.93;4.30;;;14.20;76.90;14.30;96910.00;;;;5055540;28;20287;-81
2022/10/30 04:14:41;;;;;;;7.63;3.77;;;14.20;77.00;14.30;96910.00;;;;5055227;28;20647;-81
2022/10/30 04:17:09;;;;;;;6.17;3.80;;;14.20;77.10;14.30;96910.00;;;;5049051;28;20246;-81
2022/10/30 04:19:37;;;;;;;5.67;3.60;;;14.20;77.20;14.30;96907.00;;;;5034811;28;20221;-81
2022/10/30 04:22:05;;;;;;;6.07;3.43;;;14.20;77.30;14.30;96905.00;;;;5035685;28;21015;-82
2022/10/30 04:24:32;;;;;;;6.43;4.33;;;14.20;77.30;14.30;96916.00;;;;5035853;28;20285;-81
2022/10/30 04:27:02;;;;;;;5.27;3.97;;;14.20;77.20;14.30;96910.00;;;;5036195;28;20197;-82
2022/10/30 04:29:29;;;;;;;5.00;3.83;;;14.20;77.20;14.30;96908.00;;;;5035699;28;20247;-81
2022/10/30 04:32:02;;;;;;;3.97;3.33;;;14.20;77.20;14.30;96909.00;;;;5055009;28;20208;-82
2022/10/30 04:34:29;;;;;;;4.77;3.30;;;14.10;77.10;14.30;96903.00;;;;5056437;28;20274;-82
2022/10/30 04:36:58;;;;;;;3.63;3.30;;;14.10;77.00;14.20;96901.00;;;;5057590;28;20231;-82
2022/10/30 04:39:25;;;;;;;5.50;3.93;;;14.10;77.00;14.20;96897.00;;;;5059791;28;20656;-81
2022/10/30 04:41:52;;;;;;;3.23;2.93;;;14.10;76.90;14.20;96897.00;;;;5060634;28;20708;-81
2022/10/30 04:44:20;;;;;;;5.73;3.37;;;14.10;76.80;14.20;96900.00;;;;5059653;28;20270;-81
2022/10/30 04:46:47;;;;;;;3.53;3.23;;;14.10;76.90;14.20;96908.00;;;;5047814;28;20232;-81
2022/10/30 04:49:14;;;;;;;4.00;3.60;;;14.10;76.60;14.20;96900.00;;;;5044620;28;20293;-81
2022/10/30 04:51:41;;;;;;;6.00;3.57;;;14.10;76.50;14.20;96892.00;;;;5040829;28;20201;-82
2022/10/30 04:54:12;;;;;;;3.30;2.90;;;14.10;76.40;14.10;96902.00;;;;5040181;28;20240;-82
2022/10/30 04:56:40;;;;;;;4.00;3.60;;;14.10;76.40;14.10;96896.00;;;;5038866;28;20642;-82
2022/10/30 04:59:10;;;;;;;7.57;3.80;;;14.00;76.30;14.10;96892.00;;;;5042386;28;20688;-82
2022/10/30 05:01:37;;;;;;;4.53;3.60;;;14.00;76.30;14.10;96883.00;;;;5038732;28;20273;-82
2022/10/30 05:04:04;;;;;;;9.37;4.33;;;14.00;76.20;14.10;96879.00;;;;5038727;28;20267;-82
2022/10/30 05:06:32;;;;;;;6.30;3.80;;;14.00;76.40;14.00;96887.00;;;;5038870;28;20542;-82
2022/10/30 05:09:03;;;;;;;5.47;3.67;;;14.00;76.40;14.00;96879.00;;;;5063797;22;20283;-82
2022/10/30 05:11:34;;;;;;;5.07;4.20;;;14.00;76.30;14.00;96886.00;;;;5038423;28;20343;-81
2022/10/30 05:14:02;;;;;;;6.13;3.47;;;13.90;76.30;14.00;96879.00;;;;5048688;28;20573;-83
2022/10/30 05:16:31;;;;;;;6.47;3.90;;;13.90;76.30;14.00;96873.00;;;;5057359;28;20205;-83
2022/10/30 05:18:59;;;;;;;6.80;3.50;;;13.90;76.40;14.00;96873.00;;;;5045444;28;20236;-84
2022/10/30 05:21:26;;;;;;;5.50;3.70;;;13.90;76.40;14.00;96878.00;;;;5042719;28;20199;-82
2022/10/30 05:23:53;;;;;;;7.10;3.87;;;13.90;76.60;14.00;96882.00;;;;5049601;28;20225;-82
2022/10/30 05:26:23;;;;;;;4.30;3.87;;;13.80;76.60;14.00;96869.00;;;;5046704;28;20201;-82
2022/10/30 05:28:57;;;;;;;6.17;3.53;;;13.90;76.70;13.90;96878.00;;;;5045298;28;20220;-82
2022/10/30 05:31:27;;;;;;;5.70;3.80;;;13.80;76.70;13.90;96872.00;;;;5050016;28;20578;-82
2022/10/30 05:33:57;;;;;;;5.80;4.03;;;13.80;76.60;13.90;96863.00;;;;5052395;28;20751;-81
2022/10/30 05:36:25;;;;;;;5.80;4.20;;;13.80;76.60;13.90;96870.00;;;;5053864;28;20279;-81
2022/10/30 05:38:55;;;;;;;7.53;4.43;;;13.80;76.70;13.90;96864.00;;;;5055333;28;20209;-82
2022/10/30 05:41:22;;;;;;;4.80;4.20;;;13.80;76.70;13.90;96868.00;;;;5049021;28;20205;-81
2022/10/30 05:43:54;;;;;;;4.23;3.80;;;13.80;76.70;13.90;96864.00;;;;5047031;28;20710;-82
2022/10/30 05:46:21;;;;;;;6.10;4.33;;;13.80;76.70;13.90;96865.00;;;;5053216;28;20201;-82
2022/10/30 05:48:48;;;;;;;6.27;4.40;;;13.80;76.70;13.80;96864.00;;;;5052053;28;20205;-82
2022/10/30 05:51:18;;;;;;;5.20;4.70;;;13.70;76.70;13.80;96867.00;;;;5054382;28;20732;-81
2022/10/30 05:53:50;;;;;;;4.20;3.80;;;13.70;76.60;13.80;96865.00;;;;5050262;28;20654;-81
2022/10/30 05:56:18;;;;;;;6.03;3.70;;;13.70;76.60;13.80;96862.00;;;;5049725;28;20208;-81
2022/10/30 05:58:45;;;;;;;5.10;3.93;;;13.70;77.30;13.80;96863.00;;;;5053224;28;20235;-82
2022/10/30 06:01:16;;;;;;;5.90;4.67;;;13.70;76.50;13.80;96865.00;;;;5053488;28;20260;-81
2022/10/30 06:03:46;;;;;;;4.23;3.83;;;13.70;76.60;13.80;96867.00;;;;5044013;28;20244;-81
2022/10/30 06:06:19;;;;;;;4.47;3.47;;;13.70;76.50;13.80;96876.00;;;;5052510;28;20231;-82
2022/10/30 06:08:51;;;;;;;5.00;4.10;;;13.70;76.50;13.80;96878.00;;;;5054457;28;20295;-82
2022/10/30 06:11:18;;;;;;;4.33;3.87;;;13.70;76.50;13.80;96888.00;;;;5048983;28;20232;-81
2022/10/30 06:13:52;;;;;;;4.63;3.60;;;13.70;76.60;13.80;96882.00;;;;5061286;28;20655;-82
2022/10/30 06:16:24;;;;;;;5.07;4.07;;;13.70;76.60;13.80;96890.00;;;;5054137;28;20189;-82
2022/10/30 06:18:54;;;;;;;5.47;3.77;;;13.70;76.60;13.80;96896.00;;;;5041350;28;20237;-82
2022/10/30 06:21:23;;;;;;;3.50;3.20;;;13.70;76.70;13.80;96892.00;;;;5051463;28;20224;-83
2022/10/30 06:23:51;;;;;;;4.00;3.57;;;13.70;76.70;13.80;96891.00;;;;5052979;28;20253;-83
2022/10/30 06:26:25;;;;;;;4.37;3.33;;;13.70;76.70;13.80;96881.00;;;;5052636;28;20201;-82
2022/10/30 06:28:55;;;;;;;3.70;3.30;;;13.70;76.80;13.80;96886.00;;;;5049172;28;20200;-82
2022/10/30 06:31:27;;;;;;;3.47;3.17;;;13.70;76.80;13.80;96882.00;;;;5050460;28;20201;-81
2022/10/30 06:33:54;;;;;;;3.67;3.27;;;13.70;77.00;13.90;96888.00;;;;5048949;28;20225;-82
2022/10/30 06:36:27;;;;;;;3.37;3.07;;;13.70;77.00;13.90;96885.00;;;;5048661;28;20256;-83
2022/10/30 06:38:54;;;;;;;4.20;3.30;;;13.70;77.10;13.90;96888.00;;;;5053602;28;20200;-82
2022/10/30 06:41:21;;;;;;;6.40;3.73;;;13.70;77.10;13.90;96885.00;;;;5049356;28;20312;-81
2022/10/30 06:43:49;;;;;;;3.53;3.20;;;13.70;77.20;13.90;96876.00;;;;5048720;28;20283;-81
2022/10/30 06:46:16;;;;;;;3.43;3.13;;;13.70;77.30;13.90;96873.00;;;;5051766;28;20204;-81
2022/10/30 06:48:50;;;;;;;3.50;3.20;;;13.80;77.40;14.00;96878.00;;;;5047100;28;20220;-81
2022/10/30 06:51:19;;;;;;;3.17;2.93;;;13.80;77.60;14.10;96877.00;;;;5046444;28;20201;-81
2022/10/30 06:54:00;;;;;;;3.63;3.20;;;13.80;77.70;14.20;96886.00;;;;5052328;28;20228;-81
2022/10/30 06:56:34;;;;;;;3.80;3.40;;;13.80;77.80;14.20;96884.00;;;;5050560;28;20204;-81
2022/10/30 06:59:04;;;;;;;3.30;3.00;;;13.90;78.70;14.30;96882.00;;;;5046878;28;20227;-81
2022/10/30 07:01:31;;;;;;;4.47;3.87;;;13.90;78.00;14.30;96880.00;;;;5051647;28;20291;-82
2022/10/30 07:04:00;;;;;;;3.27;2.97;;;14.00;78.20;14.40;96884.00;;;;5053801;28;20305;-81
2022/10/30 07:06:27;;;;;;;3.67;3.37;;;14.00;78.40;14.40;96889.00;;;;5060947;28;20204;-80
2022/10/30 07:08:54;;;;;;;3.47;3.17;;;14.00;78.80;14.50;96889.00;;;;5061110;28;20204;-81
2022/10/30 07:11:21;;;;;;;4.87;3.50;;;14.10;78.80;14.60;96885.00;;;;5053405;28;20284;-80
2022/10/30 07:13:48;;;;;;;4.80;3.17;;;14.10;78.80;14.60;96893.00;;;;5050496;28;20240;-80
2022/10/30 07:16:15;;;;;;;4.20;3.47;;;14.20;78.90;14.70;96897.00;;;;5055227;28;20642;-80
2022/10/30 07:18:43;;;;;;;3.77;3.47;;;14.20;79.00;14.80;96895.00;;;;5047980;28;20204;-80
2022/10/30 07:21:12;;;;;;;3.53;2.63;;;14.30;79.10;14.80;96899.00;;;;5052971;28;20225;-81
2022/10/30 07:23:48;;;;;;;3.70;3.07;;;14.40;79.40;14.90;96898.00;;;;5049561;28;20240;-81
2022/10/30 07:26:36;;;;;;;3.00;2.80;;;14.40;79.50;15.00;96902.00;;;;5050649;28;20212;-81
2022/10/30 07:29:13;;;;;;;3.83;3.23;;;14.50;79.50;15.00;96903.00;;;;5050434;28;20660;-79
2022/10/30 07:31:43;;;;;;;3.40;3.10;;;14.50;79.60;15.10;96909.00;;;;5047479;28;20209;-81
2022/10/30 07:34:14;;;;;;;3.17;2.93;;;14.60;79.80;15.20;96910.00;;;;5043775;28;20229;-81
2022/10/30 07:36:52;;;;;;;3.80;3.20;;;14.60;79.80;15.20;96911.00;;;;5051641;28;20200;-82
2022/10/30 07:39:23;;;;;;;3.37;2.97;;;14.70;80.00;15.30;96910.00;;;;5050397;28;20205;-82
2022/10/30 07:41:54;;;;;;;3.93;3.63;;;14.80;80.20;15.40;96916.00;;;;5051301;28;20201;-81
2022/10/30 07:44:39;;;;;;;3.50;3.10;;;14.90;80.30;15.40;96915.00;;;;5048441;28;20661;-82
2022/10/30 07:47:13;;;;;;;4.60;3.10;;;15.00;80.80;15.50;96916.00;;;;5039209;28;20665;-81
2022/10/30 07:49:42;;;;;;;5.17;3.27;;;15.00;80.50;15.60;96916.00;;;;5047801;28;20216;-81
2022/10/30 07:52:19;;;;;;;3.67;3.37;;;15.10;80.60;15.70;96929.00;;;;5045984;28;20789;-81
2022/10/30 07:54:46;;;;;;;4.60;4.10;;;15.20;81.00;15.80;96933.00;;;;5046344;28;20231;-81
2022/10/30 07:57:15;;;;;;;4.80;4.00;;;15.30;81.00;15.90;96932.00;;;;5043602;28;20208;-81
2022/10/30 07:59:48;;;;;;;4.00;3.70;;;15.30;81.10;16.00;96930.00;;;;5051263;28;20216;-81
2022/10/30 08:02:22;;;;;;;4.57;4.17;;;15.40;81.20;16.10;96938.00;;;;5042763;28;20628;-81
2022/10/30 08:04:55;;;;;;;4.80;4.40;;;15.50;81.40;16.20;96936.00;;;;5048647;28;20217;-81
2022/10/30 08:07:38;;;;;;;4.70;4.30;;;15.60;81.40;16.30;96933.00;;;;5049976;28;20267;-81
2022/10/30 08:10:14;;;;;;;4.30;3.90;;;15.70;81.70;16.40;96935.00;;;;5047695;28;20212;-81
2022/10/30 08:12:50;;;;;;;4.80;4.40;;;15.90;81.60;16.60;96935.00;;;;5054443;28;20212;-81
2022/10/30 08:15:26;;;;;;;5.47;4.10;;;15.90;81.60;16.60;96936.00;;;;5054007;28;20624;-81
2022/10/30 08:18:00;;;;;;;3.30;3.10;;;16.00;81.50;16.70;96934.00;;;;5047885;28;20234;-81
2022/10/30 08:20:33;;;;;;;3.87;3.47;;;16.10;81.60;16.80;96923.00;;;;5051461;28;20231;-81
2022/10/30 08:23:01;;;;;;;4.07;3.23;;;16.20;81.50;16.90;96929.00;;;;5051088;28;20245;-81
2022/10/30 08:25:30;;;;;;;3.77;3.47;;;16.30;81.50;17.00;96925.00;;;;5054567;28;20209;-81
2022/10/30 08:28:00;;;;;;;4.00;3.40;;;16.40;81.50;17.10;96926.00;;;;5049710;28;20202;-81
2022/10/30 08:30:33;;;;;;;3.60;3.27;;;16.50;81.20;17.20;96927.00;;;;5053835;28;20227;-81
2022/10/30 08:33:12;;;;;;;4.23;2.83;;;16.60;81.20;17.30;96926.00;;;;5054159;28;20256;-81
2022/10/30 08:35:46;;;;;;;3.43;3.13;;;16.70;81.10;17.40;96935.00;;;;5049090;28;20220;-81
2022/10/30 08:38:26;;;;;;;3.13;2.30;;;16.80;80.80;17.50;96933.00;;;;5049799;28;20215;-82
2022/10/30 08:41:01;;;;;;;6.03;2.83;;;16.90;80.80;17.60;96936.00;;;;5048942;28;20347;-81
2022/10/30 08:43:31;;;;;;;4.90;2.90;;;17.00;80.70;17.70;96933.00;;;;5051664;28;20255;-81
2022/10/30 08:46:06;;;;;;;2.90;2.70;;;17.10;80.60;17.80;96930.00;;;;5049133;28;20208;-81
2022/10/30 08:48:44;;;;;;;3.70;2.83;;;17.20;80.50;17.80;96930.00;;;;5050600;28;20204;-81
2022/10/30 08:51:18;;;;;;;3.43;2.53;;;17.20;80.20;17.90;96937.00;;;;5052484;28;20200;-81
2022/10/30 08:53:48;;;;;;;4.37;3.30;;;17.30;80.00;18.00;96932.00;;;;5052251;28;20231;-81
2022/10/30 08:56:19;;;;;;;5.20;2.90;;;17.50;79.80;18.10;96932.00;;;;5050863;28;20228;-81
2022/10/30 08:58:55;;;;;;;6.00;3.63;;;17.50;79.60;18.20;96924.00;;;;5048725;28;20254;-81
2022/10/30 09:01:22;;;;;;;3.37;2.93;;;17.70;79.40;18.30;96931.00;;;;5052981;28;20736;-81
2022/10/30 09:03:52;;;;;;;4.17;3.00;;;17.70;79.20;18.40;96922.00;;;;5044452;28;20260;-81
2022/10/30 09:06:19;;;;;;;5.27;2.40;;;17.80;79.00;18.50;96928.00;;;;5043547;28;20197;-81
2022/10/30 09:08:50;;;;;;;3.77;2.10;;;17.90;78.90;18.60;96923.00;;;;5047913;28;20248;-82
2022/10/30 09:11:17;;;;;;;6.13;2.40;;;18.00;79.00;18.60;96932.00;;;;5051867;28;20210;-81
2022/10/30 09:13:49;;;;;;;3.20;2.40;;;18.00;79.00;18.80;96926.00;;;;5047448;28;20245;-81
2022/10/30 09:16:18;;;;;;;2.67;2.10;;;18.10;79.10;18.80;96933.00;;;;5052064;28;20205;-81
2022/10/30 09:18:49;;;;;;;2.97;2.03;;;18.20;79.00;19.00;96934.00;;;;5047775;28;20216;-80
2022/10/30 09:21:22;;;;;;;3.37;2.33;;;18.30;79.00;19.00;96929.00;;;;5051760;28;20216;-81
2022/10/30 09:23:54;;;;;;;4.20;2.87;;;18.40;78.90;19.20;96934.00;;;;5039494;28;20221;-81
2022/10/30 09:26:24;;;;;;;2.50;2.30;;;18.50;78.60;19.30;96934.00;;;;5044486;28;20205;-81
2022/10/30 09:28:56;;;;;;;4.10;2.57;;;18.60;78.90;19.40;96932.00;;;;5051859;28;20548;-83
2022/10/30 09:31:29;;;;;;;3.00;2.67;;;18.70;79.00;19.50;96937.00;;;;5049684;28;20251;-81
2022/10/30 09:34:02;;;;;;;4.50;3.20;;;18.80;79.00;19.70;96939.00;;;;5052246;28;20221;-82
2022/10/30 09:36:32;;;;;;;4.20;3.70;;;19.00;79.40;19.90;96942.00;;;;5040233;28;20211;-81
2022/10/30 09:39:06;;;;;;;3.33;3.03;;;19.10;79.20;20.00;96936.00;;;;5044312;28;20254;-82
2022/10/30 09:42:20;;;;;;;8.00;4.67;;;19.30;79.20;20.20;96941.00;;;;5033902;28;20206;-82
2022/10/30 09:45:11;;;;;;;5.97;3.37;;;19.40;78.70;20.30;96939.00;;;;5054169;28;20221;-82
2022/10/30 09:48:01;;;;;;;5.07;3.73;;;19.60;78.80;20.50;96950.00;;;;5045790;28;20604;-82
2022/10/30 09:50:45;;;;;;;3.97;3.57;;;19.80;78.30;20.60;96938.00;;;;5047887;28;20205;-82
2022/10/30 09:53:37;;;;;;;5.50;3.83;;;20.00;78.30;20.70;96943.00;;;;5048769;28;20229;-82
2022/10/30 09:56:17;;;;;;;3.73;3.23;;;20.10;77.70;20.80;96945.00;;;;5037127;28;20201;-82
2022/10/30 09:59:04;;;;;;;3.13;2.93;;;20.20;77.80;21.00;96951.00;;;;5041763;28;20204;-82
2022/10/30 10:01:49;;;;;;;3.33;2.87;;;20.40;77.50;21.10;96942.00;;;;5034859;28;20234;-83
2022/10/30 10:04:28;;;;;;;13.93;3.87;;;20.50;77.30;21.20;96946.00;;;;5049309;28;20235;-83
2022/10/30 10:07:10;;;;;;;3.93;3.10;;;20.70;77.10;21.40;96947.00;;;;5045950;28;20229;-82
2022/10/30 10:09:43;;;;;;;4.40;3.10;;;20.80;77.00;21.50;96937.00;;;;5050242;28;20673;-82
2022/10/30 10:12:26;;;;;;;5.40;3.23;;;21.00;76.80;21.60;96950.00;;;;5049605;28;20197;-82
2022/10/30 10:14:57;;;;;;;4.23;3.13;;;21.10;76.60;21.70;96948.00;;;;5043318;28;20225;-82
2022/10/30 10:17:40;;;;;;;5.53;4.03;;;21.20;76.20;21.90;96950.00;;;;5047229;28;20208;-82
2022/10/30 10:20:27;;;;;;;3.57;3.27;;;21.40;75.70;22.00;96949.00;;;;5041744;28;20252;-82
2022/10/30 10:23:04;;;;;;;3.30;3.00;;;21.50;75.20;22.20;96953.00;;;;5048820;28;20217;-82
2022/10/30 10:25:34;;;;;;;3.83;3.17;;;21.70;75.20;22.30;96949.00;;;;5030218;28;20224;-82
2022/10/30 10:28:18;;;;;;;5.60;3.90;;;21.80;74.70;22.40;96947.00;;;;5045008;28;20661;-82
2022/10/30 10:31:08;;;;;;;4.83;4.10;;;21.90;72.30;22.50;96939.00;;;;5048634;28;20220;-83
2022/10/30 10:33:58;;;;;;;4.57;3.30;;;22.00;72.50;22.50;96941.00;;;;5043453;28;20222;-82
2022/10/30 10:36:41;;;;;;;3.93;2.67;;;22.10;72.40;22.60;96936.00;;;;5045835;28;20228;-82
2022/10/30 10:39:36;;;;;;;5.23;2.97;;;22.10;72.60;22.60;96941.00;;;;5047646;28;20201;-82
2022/10/30 10:42:22;;;;;;;5.33;3.00;;;22.20;72.40;22.70;96941.00;;;;5047721;28;20697;-83
2022/10/30 10:45:17;;;;;;;2.70;2.20;;;22.20;71.90;22.70;96933.00;;;;5050623;28;20225;-83
2022/10/30 10:48:44;;;;;;;2.67;2.27;;;22.20;71.20;22.70;96935.00;;;;5036746;28;20390;-84
2022/10/30 10:51:17;;;;;;;3.80;2.13;;;22.20;71.30;22.70;96935.00;;;;5042461;28;20569;-84
2022/10/30 10:53:53;;;;;;;3.93;2.77;;;22.20;72.10;22.70;96932.00;;;;5046458;28;20236;-84
2022/10/30 10:56:29;;;;;;;4.60;3.77;;;22.20;71.50;22.70;96927.00;;;;5039524;28;20200;-84
2022/10/30 10:59:03;;;;;;;3.10;2.80;;;22.20;70.90;22.70;96924.00;;;;5041490;28;20240;-83
2022/10/30 11:01:38;;;;;;;4.27;2.90;;;22.20;71.40;22.70;96925.00;;;;5044487;28;20259;-84
2022/10/30 11:04:21;;;;;;;3.87;2.90;;;22.20;70.70;22.70;96928.00;;;;5042531;28;20263;-84
2022/10/30 11:06:56;;;;;;;4.67;2.53;;;22.20;70.60;22.70;96926.00;;;;5043010;28;20225;-84
2022/10/30 11:09:26;;;;;;;4.10;3.17;;;22.20;70.70;22.70;96918.00;;;;5065393;22;20727;-87
2022/10/30 11:11:55;;;;;;;4.37;2.90;;;22.20;70.70;22.70;96924.00;;;;5044962;28;20280;-87
2022/10/30 11:14:27;;;;;;;3.37;2.90;;;22.20;70.40;22.70;96921.00;;;;5043612;28;20560;-87
2022/10/30 11:17:10;;;;;;;4.03;2.57;;;22.20;70.40;22.70;96910.00;;;;5041718;28;20197;-87
2022/10/30 11:19:37;;;;;;;2.93;2.53;;;22.20;70.50;22.80;96915.00;;;;5021315;28;20299;-87